Time;durP1;ratioP1;P1;durP2;ratioP2;P2;SDS_P1;SDS_P2;PMS_P1;PMS_P2;Temp;Humidity;BMP_temperature;BMP_pressure;BME280_temperature;BME280_humidity;BME280_pressure;Samples;Min_cycle;Max_cycle;Signal;HPM_P1;HPM_P2
2023/12/27 00:01:22;;;;;;;94.22;56.83;;;;;;;;;;5050956;28;20048;-70
2023/12/27 00:04:26;;;;;;;89.72;56.65;;;;;;;;;;5098563;27;20404;-70
2023/12/27 00:07:30;;;;;;;88.55;56.92;;;;;;;;;;5098558;27;20044;-70
2023/12/27 00:10:34;;;;;;;86.43;53.97;;;;;;;;;;5050905;28;20044;-70
2023/12/27 00:13:38;;;;;;;73.15;46.58;;;;;;;;;;5050766;28;20044;-70
2023/12/27 00:16:43;;;;;;;72.78;46.17;;;;;;;;;;5050344;28;20076;-70
2023/12/27 00:19:47;;;;;;;71.18;45.70;;;;;;;;;;5050713;28;20498;-70
2023/12/27 00:22:52;;;;;;;80.45;50.08;;;;;;;;;;5050710;28;20388;-70
2023/12/27 00:25:57;;;;;;;79.32;51.10;;;;;;;;;;5098274;27;20059;-70
2023/12/27 00:29:02;;;;;;;69.80;48.13;;;;;;;;;;5050425;28;20113;-70
2023/12/27 00:32:11;;;;;;;77.75;50.58;;;;;;;;;;5098493;27;20048;-70
2023/12/27 00:35:15;;;;;;;80.50;49.85;;;;;;;;;;5098263;27;20060;-70
2023/12/27 00:38:19;;;;;;;73.50;48.53;;;;;;;;;;5097761;27;20043;-70
2023/12/27 00:41:23;;;;;;;74.03;49.03;;;;;;;;;;5050000;28;20044;-70
2023/12/27 00:44:28;;;;;;;74.05;49.38;;;;;;;;;;5050110;28;20595;-70
2023/12/27 00:47:32;;;;;;;73.60;47.78;;;;;;;;;;5050114;28;20044;-70
2023/12/27 00:50:36;;;;;;;77.50;47.53;;;;;;;;;;5086393;28;20039;-70
2023/12/27 00:53:41;;;;;;;77.75;48.03;;;;;;;;;;5098312;27;20052;-69
2023/12/27 00:56:49;;;;;;;71.47;45.88;;;;;;;;;;5049940;28;20048;-70
2023/12/27 00:59:54;;;;;;;74.68;45.13;;;;;;;;;;5097943;27;20063;-69
2023/12/27 01:02:59;;;;;;;73.40;44.33;;;;;;;;;;5050031;28;20502;-69
2023/12/27 01:06:04;;;;;;;74.15;45.97;;;;;;;;;;5097749;27;20044;-69
2023/12/27 01:09:08;;;;;;;70.72;45.08;;;;;;;;;;5049913;28;20499;-70
2023/12/27 01:12:14;;;;;;;67.40;44.67;;;;;;;;;;5097383;27;20044;-70
2023/12/27 01:15:18;;;;;;;70.72;46.15;;;;;;;;;;5097136;27;20069;-69
2023/12/27 01:18:22;;;;;;;66.72;44.25;;;;;;;;;;5049119;28;20048;-70
2023/12/27 01:21:26;;;;;;;73.03;46.78;;;;;;;;;;5085325;28;20493;-70
2023/12/27 01:24:30;;;;;;;68.80;47.17;;;;;;;;;;5049112;28;20507;-70
2023/12/27 01:27:35;;;;;;;76.32;47.47;;;;;;;;;;5097257;27;20052;-70
2023/12/27 01:30:39;;;;;;;73.35;48.22;;;;;;;;;;5049463;28;20048;-70
2023/12/27 01:33:44;;;;;;;80.18;47.78;;;;;;;;;;5073355;28;20047;-69
2023/12/27 01:36:48;;;;;;;73.45;47.33;;;;;;;;;;5049502;28;20040;-70
2023/12/27 01:39:52;;;;;;;72.07;45.70;;;;;;;;;;5085170;28;20048;-70
2023/12/27 01:42:56;;;;;;;68.68;47.15;;;;;;;;;;5049369;28;20579;-70
2023/12/27 01:46:01;;;;;;;81.70;47.33;;;;;;;;;;5049117;28;20044;-69
2023/12/27 01:49:05;;;;;;;73.40;47.25;;;;;;;;;;5096858;27;20064;-69
2023/12/27 01:52:10;;;;;;;73.22;46.45;;;;;;;;;;5085236;28;20044;-69
2023/12/27 01:55:16;;;;;;;74.63;47.90;;;13.80;99.90;;;;;;5096667;27;20044;-69
2023/12/27 01:58:22;;;;;;;73.55;47.83;;;12.30;99.90;;;;;;5096716;27;20419;-69
2023/12/27 02:01:26;;;;;;;75.50;49.47;;;;;;;;;;5096968;27;20044;-70
2023/12/27 02:04:30;;;;;;;75.20;50.83;;;;;;;;;;5096756;27;20044;-70
2023/12/27 02:07:36;;;;;;;80.20;50.50;;;13.50;99.90;;;;;;5084379;28;20076;-69
2023/12/27 02:10:43;;;;;;;90.07;53.42;;;;;;;;;;5085111;27;20048;-70
2023/12/27 02:13:47;;;;;;;75.63;50.85;;;;;;;;;;5048736;28;20044;-69
2023/12/27 02:16:51;;;;;;;79.10;51.60;;;;;;;;;;5084425;28;20052;-70
2023/12/27 02:19:56;;;;;;;78.75;52.40;;;;;;;;;;5072974;28;20052;-69
2023/12/27 02:23:03;;;;;;;81.68;51.80;;;13.70;99.90;;;;;;5095483;27;20036;-69
2023/12/27 02:26:07;;;;;;;75.95;51.20;;;;;;;;;;5096338;27;20650;-70
2023/12/27 02:29:12;;;;;;;84.45;49.90;;;;;;;;;;5048724;28;20048;-69
2023/12/27 02:32:16;;;;;;;74.80;49.38;;;;;;;;;;5048440;28;20035;-71
2023/12/27 02:35:20;;;;;;;81.07;49.38;;;;;;;;;;5095953;27;20380;-69
2023/12/27 02:38:24;;;;;;;77.50;49.83;;;;;;;;;;5048579;28;20048;-70
2023/12/27 02:41:29;;;;;;;79.05;51.15;;;;;;;;;;5095828;27;20048;-71
2023/12/27 02:44:33;;;;;;;76.68;49.72;;;;;;;;;;5095913;27;20055;-70
2023/12/27 02:47:38;;;;;;;74.85;49.65;;;;;;;;;;5048291;28;20099;-69
2023/12/27 02:50:44;;;;;;;78.72;50.38;;;;;;;;;;5084421;28;20066;-69
2023/12/27 02:53:48;;;;;;;82.30;51.75;;;;;;;;;;5095443;27;20051;-69
2023/12/27 02:56:52;;;;;;;75.90;49.15;;;;;;;;;;5048165;28;20384;-69
2023/12/27 02:59:57;;;;;;;70.82;47.03;;;;;;;;;;5048308;28;20039;-69
2023/12/27 03:03:04;;;;;;;70.65;47.58;;;13.60;99.90;;;;;;5047931;28;20036;-71
2023/12/27 03:06:08;;;;;;;72.40;49.38;;;;;;;;;;5083760;28;20052;-70
2023/12/27 03:09:13;;;;;;;76.00;50.00;;;;;;;;;;5095576;28;20044;-71
2023/12/27 03:12:17;;;;;;;76.07;49.13;;;;;;;;;;5095561;28;20048;-71
2023/12/27 03:15:22;;;;;;;71.57;51.10;;;;;;;;;;5095508;28;20044;-71
2023/12/27 03:18:26;;;;;;;80.68;50.42;;;;;;;;;;5083799;28;20527;-71
2023/12/27 03:21:31;;;;;;;85.35;52.00;;;;;;;;;;5051367;28;20036;-71
2023/12/27 03:24:35;;;;;;;80.30;50.47;;;;;;;;;;5099493;27;20052;-71
2023/12/27 03:27:39;;;;;;;76.70;50.67;;;;;;;;;;5099168;27;20056;-70
2023/12/27 03:30:43;;;;;;;81.78;53.63;;;;;;;;;;5051425;28;20036;-70
2023/12/27 03:33:48;;;;;;;80.53;52.45;;;;;;;;;;5051084;28;20590;-70
2023/12/27 03:36:52;;;;;;;75.20;50.25;;;;;;;;;;5051396;28;20056;-71
2023/12/27 03:39:56;;;;;;;76.80;49.83;;;;;;;;;;5051276;28;20044;-71
2023/12/27 03:43:01;;;;;;;65.40;44.95;;;;;;;;;;5099031;27;20507;-71
2023/12/27 03:46:06;;;;;;;64.63;41.40;;;;;;;;;;5099151;27;20056;-70
2023/12/27 03:49:10;;;;;;;63.35;39.45;;;;;;;;;;5099024;27;20064;-70
2023/12/27 03:52:15;;;;;;;60.08;37.92;;;;;;;;;;5099202;27;20518;-71
2023/12/27 03:55:19;;;;;;;54.72;35.53;;;;;;;;;;5098709;27;20044;-70
2023/12/27 03:58:24;;;;;;;43.88;27.05;;;;;;;;;;5051080;28;20044;-71
2023/12/27 04:01:28;;;;;;;45.08;24.77;;;;;;;;;;5099029;27;20130;-71
2023/12/27 04:04:33;;;;;;;35.17;18.83;;;;;;;;;;5098485;27;20044;-71
2023/12/27 04:07:38;;;;;;;28.17;15.98;;;;;;;;;;5051032;28;20055;-71
2023/12/27 04:10:43;;;;;;;35.55;18.80;;;;;;;;;;5098732;27;20044;-70
2023/12/27 04:13:48;;;;;;;36.95;22.67;;;;;;;;;;5098560;27;20052;-70
2023/12/27 04:16:52;;;;;;;38.53;19.30;;;;;;;;;;5050335;28;20048;-70
2023/12/27 04:19:57;;;;;;;30.30;19.23;;;;;;;;;;5097918;27;20044;-71
2023/12/27 04:23:01;;;;;;;35.47;19.50;;;;;;;;;;5050468;28;20036;-71
2023/12/27 04:26:05;;;;;;;28.50;18.45;;;;;;;;;;5098054;27;20048;-71
2023/12/27 04:29:10;;;;;;;24.80;15.55;;;;;;;;;;5050294;28;20048;-71
2023/12/27 04:32:15;;;;;;;31.27;17.05;;;;;;;;;;5086423;28;20036;-71
2023/12/27 04:35:19;;;;;;;29.88;18.20;;;;;;;;;;5050558;28;20074;-71
2023/12/27 04:38:24;;;;;;;33.45;19.13;;;;;;;;;;5086294;28;20040;-70
2023/12/27 04:41:28;;;;;;;29.35;17.77;;;;;;;;;;5086605;28;20048;-70
2023/12/27 04:44:32;;;;;;;27.85;15.73;;;;;;;;;;5097949;27;20048;-70
2023/12/27 04:47:37;;;;;;;23.73;14.27;;;;;;;;;;5097893;27;20048;-71
2023/12/27 04:50:45;;;;;;;22.65;13.52;;;;;;;;;;5096110;27;20158;-71
2023/12/27 04:53:49;;;;;;;25.83;13.65;;;;;;;;;;5050019;28;20040;-71
2023/12/27 04:56:55;;;;;;;29.08;14.60;;;;;;;;;;5085805;28;20040;-71
2023/12/27 05:00:00;;;;;;;27.80;16.17;;;;;;;;;;5097768;27;20055;-71
2023/12/27 05:03:05;;;;;;;31.60;16.95;;;;;;;;;;5096828;27;20044;-71
2023/12/27 05:06:10;;;;;;;35.90;17.70;;;;;;;;;;5097444;27;20064;-71
2023/12/27 05:09:16;;;;;;;30.98;16.08;;;;;;;;;;5097574;27;20040;-70
2023/12/27 05:12:20;;;;;;;25.05;14.88;;;;;;;;;;5097863;27;20043;-70
2023/12/27 05:15:25;;;;;;;31.33;14.75;;;;;;;;;;5097971;27;20063;-70
2023/12/27 05:18:29;;;;;;;26.92;14.13;;;;;;;;;;5050067;28;20052;-70
2023/12/27 05:21:34;;;;;;;28.00;13.05;;;;;;;;;;5097659;27;20404;-71
2023/12/27 05:24:38;;;;;;;24.83;14.02;;;;;;;;;;5049634;28;20040;-71
2023/12/27 05:27:42;;;;;;;23.15;11.73;;;;;;;;;;5049750;28;20501;-71
2023/12/27 05:30:46;;;;;;;30.45;12.35;;;;;;;;;;5097324;27;20036;-71
2023/12/27 05:33:51;;;;;;;26.63;12.50;;;;;;;;;;5049403;28;20400;-71
2023/12/27 05:36:55;;;;;;;21.60;11.98;;;;;;;;;;5049208;28;20499;-71
2023/12/27 05:39:59;;;;;;;24.85;11.75;;;;;;;;;;5049418;28;20056;-71
2023/12/27 05:43:04;;;;;;;57.13;14.40;;;13.10;99.90;;;;;;5095929;27;20504;-71
2023/12/27 05:46:08;;;;;;;25.25;11.98;;;;;;;;;;5048979;28;20049;-71
2023/12/27 05:49:12;;;;;;;22.48;11.57;;;;;;;;;;5049047;28;20048;-71
2023/12/27 05:52:17;;;;;;;22.98;12.23;;;;;;;;;;5049244;28;20044;-71
2023/12/27 05:55:21;;;;;;;26.50;13.18;;;;;;;;;;5048787;28;20047;-70
2023/12/27 05:58:26;;;;;;;26.80;11.57;;;;;;;;;;5049210;28;20044;-71
2023/12/27 06:01:30;;;;;;;24.27;11.85;;;;;;;;;;5048962;28;20072;-71
2023/12/27 06:04:35;;;;;;;21.27;11.10;;;;;;;;;;5096426;27;20048;-70
2023/12/27 06:07:40;;;;;;;19.88;11.02;;;;;;;;;;5048534;28;20052;-70
2023/12/27 06:10:44;;;;;;;29.45;12.43;;;;;;;;;;5048853;28;20511;-70
2023/12/27 06:13:49;;;;;;;28.70;13.05;;;;;;;;;;5048693;28;20040;-70
2023/12/27 06:16:53;;;;;;;32.50;14.45;;;;;;;;;;5048537;28;20044;-71
2023/12/27 06:19:58;;;;;;;28.58;12.13;;;;;;;;;;5048495;28;20036;-71
2023/12/27 06:23:02;;;;;;;29.90;12.88;;;;;;;;;;5048337;28;20048;-71
2023/12/27 06:26:06;;;;;;;32.45;13.77;;;;;;;;;;5048546;28;20549;-71
2023/12/27 06:29:11;;;;;;;33.13;13.38;;;;;;;;;;5048693;28;20507;-70
2023/12/27 06:32:15;;;;;;;38.10;14.82;;;;;;;;;;5096349;27;20060;-70
2023/12/27 06:35:19;;;;;;;43.92;13.57;;;;;;;;;;5048482;28;20044;-70
2023/12/27 06:38:24;;;;;;;35.47;14.70;;;;;;;;;;5048629;28;20499;-71
2023/12/27 06:41:29;;;;;;;32.13;13.30;;;;;;;;;;5096187;27;20044;-70
2023/12/27 06:44:33;;;;;;;45.53;20.23;;;;;;;;;;5048100;28;20048;-70
2023/12/27 06:47:38;;;;;;;60.25;26.10;;;;;;;;;;5048264;28;20060;-68
2023/12/27 06:50:42;;;;;;;48.63;23.35;;;;;;;;;;5095971;27;20044;-68
2023/12/27 06:53:47;;;;;;;41.47;20.15;;;;;;;;;;5047845;28;20043;-67
2023/12/27 06:56:51;;;;;;;37.20;18.80;;;;;;;;;;5047904;28;20040;-68
2023/12/27 06:59:56;;;;;;;32.45;17.17;;;;;;;;;;5048006;28;20411;-68
2023/12/27 07:03:00;;;;;;;42.80;18.42;;;;;;;;;;5095633;27;20047;-67
2023/12/27 07:06:05;;;;;;;47.63;20.13;;;;;;;;;;5047666;28;20048;-67
2023/12/27 07:09:09;;;;;;;32.70;15.73;;;;;;;;;;5047790;28;20048;-67
2023/12/27 07:12:13;;;;;;;36.90;15.70;;;;;;;;;;5047770;28;20044;-66
2023/12/27 07:15:18;;;;;;;35.85;16.23;;;;;;;;;;5047831;28;20067;-67
2023/12/27 07:18:22;;;;;;;41.88;16.45;;;;;;;;;;5047396;28;20396;-67
2023/12/27 07:21:26;;;;;;;40.33;16.52;;;;;;;;;;5095346;28;20047;-68
2023/12/27 07:24:30;;;;;;;43.65;16.02;;;;;;;;;;5047678;28;20384;-68
2023/12/27 07:27:35;;;;;;;33.00;15.35;;;;;;;;;;5047463;28;20206;-69
2023/12/27 07:30:39;;;;;;;37.25;16.58;;;;;;;;;;5095564;28;20036;-69
2023/12/27 07:33:43;;;;;;;32.97;16.23;;;;;;;;;;5047574;28;20048;-68
2023/12/27 07:36:48;;;;;;;37.42;20.40;;;;;;;;;;5047713;28;20040;-69
2023/12/27 07:39:53;;;;;;;53.38;28.35;;;12.10;99.90;;;;;;5047319;28;20053;-68
2023/12/27 07:42:57;;;;;;;44.38;21.85;;;;;;;;;;5047467;28;20044;-68
2023/12/27 07:46:01;;;;;;;44.30;26.13;;;12.30;99.90;;;;;;5047431;28;20071;-71
2023/12/27 07:49:06;;;;;;;39.97;24.75;;;;;;;;;;5094712;28;20056;-70
2023/12/27 07:52:10;;;;;;;33.15;19.95;;;;;;;;;;5047134;28;20411;-69
2023/12/27 07:55:15;;;;;;;51.35;21.30;;;;;;;;;;5047060;28;20060;-70
2023/12/27 07:58:20;;;;;;;31.60;17.85;;;;;;;;;;5045709;28;20036;-70
2023/12/27 08:01:28;;;;;;;37.72;20.50;;;;;;;;;;5047247;28;20052;-70
2023/12/27 08:04:32;;;;;;;48.40;19.52;;;;;;;;;;5046576;28;20419;-71
2023/12/27 08:07:37;;;;;;;40.65;19.05;;;;;;;;;;5050498;28;20056;-69
2023/12/27 08:10:41;;;;;;;42.90;20.02;;;;;;;;;;5049465;28;20423;-71
2023/12/27 08:13:46;;;;;;;30.92;15.05;;;;;;;;;;5097347;27;20044;-70
2023/12/27 08:16:53;;;;;;;29.02;15.27;;;;;;;;;;5097684;27;20060;-70
2023/12/27 08:19:57;;;;;;;31.10;13.98;;;;;;;;;;5050283;28;20048;-70
2023/12/27 08:23:01;;;;;;;24.90;13.55;;;;;;;;;;5049439;28;20064;-69
2023/12/27 08:26:06;;;;;;;18.33;10.32;;;;;;;;;;5049949;28;20052;-69
2023/12/27 08:29:11;;;;;;;18.63;9.13;;;;;;;;;;5050178;28;20392;-72
2023/12/27 08:32:15;;;;;;;26.38;10.77;;;;;;;;;;5048371;28;20037;-73
2023/12/27 08:35:19;;;;;;;23.75;13.40;;;;;;;;;;5048225;28;20043;-73
2023/12/27 08:38:24;;;;;;;32.88;15.35;;;;;;;;;;5095374;27;20052;-74
2023/12/27 08:41:28;;;;;;;27.23;15.15;;;;;;;;;;5050150;28;20041;-73
2023/12/27 08:44:33;;;;;;;28.48;15.70;;;;;;;;;;5049885;28;20044;-71
2023/12/27 08:47:37;;;;;;;31.67;15.98;;;;;;;;;;5049533;28;20048;-77
2023/12/27 08:50:43;;;;;;;33.63;16.25;;;;;;;;;;5049593;28;20499;-72
2023/12/27 08:53:48;;;;;;;30.15;15.50;;;;;;;;;;5049342;28;20056;-68
2023/12/27 08:56:52;;;;;;;41.58;14.15;;;;;;;;;;5049750;28;20043;-68
2023/12/27 08:59:57;;;;;;;30.02;14.48;;;;;;;;;;5049206;28;20044;-71
2023/12/27 09:03:01;;;;;;;24.98;13.32;;;;;;;;;;5096562;27;20044;-70
2023/12/27 09:06:05;;;;;;;32.33;12.13;;;;;;;;;;5049534;28;20072;-72
2023/12/27 09:09:11;;;;;;;22.70;11.52;;;;;;;;;;5049549;28;20044;-69
2023/12/27 09:12:15;;;;;;;48.08;15.10;;;;;;;;;;5049097;28;20044;-69
2023/12/27 09:15:20;;;;;;;90.30;23.20;;;;;;;;;;5097361;27;20075;-69
2023/12/27 09:18:25;;;;;;;34.58;12.57;;;;;;;;;;5049349;28;20056;-69
2023/12/27 09:21:30;;;;;;;48.65;14.20;;;;;;;;;;5049425;28;20230;-69
2023/12/27 09:24:34;;;;;;;261.52;48.70;;;;;;;;;;5049438;28;20070;-69
2023/12/27 09:27:38;;;;;;;62.13;18.35;;;;;;;;;;5096758;27;20056;-69
2023/12/27 09:30:42;;;;;;;38.83;14.75;;;;;;;;;;5049243;28;20048;-69
2023/12/27 09:33:47;;;;;;;25.98;13.43;;;;;;;;;;5048980;28;20056;-68
2023/12/27 09:36:51;;;;;;;26.13;13.98;;;;;;;;;;5049045;28;20048;-68
2023/12/27 09:39:56;;;;;;;25.15;13.18;;;;;;;;;;5049325;28;20052;-68
2023/12/27 09:43:03;;;;;;;22.95;11.65;;;;;;;;;;5049023;28;20052;-69
2023/12/27 09:46:08;;;;;;;12.13;6.88;;;;;;;;;;5048933;28;20052;-69
2023/12/27 09:49:12;;;;;;;173.48;16.40;;;;;;;;;;5049173;28;20214;-69
2023/12/27 09:52:17;;;;;;;17.88;7.50;;;;;;;;;;5048896;28;20044;-68
2023/12/27 09:55:22;;;;;;;12.13;5.85;;;;;;;;;;5049402;28;20503;-69
2023/12/27 09:58:30;;;;;;;79.85;10.93;;;19.20;90.20;;;;;;5048626;28;20388;-69
2023/12/27 10:01:39;;;;;;;109.70;11.48;;;;;;;;;;5048976;28;20388;-69
2023/12/27 10:05:08;;;;;;;226.40;20.65;;;19.30;89.90;;;;;;5096210;27;20526;-70
2023/12/27 10:08:12;;;;;;;56.67;8.23;;;;;;;;;;5049192;28;20067;-69
2023/12/27 10:11:18;;;;;;;18.27;5.97;;;;;;;;;;5048846;28;20029;-69
2023/12/27 10:14:23;;;;;;;21.60;6.82;;;;;;;;;;5047508;28;20045;-69
2023/12/27 10:17:27;;;;;;;21.23;6.72;;;;;;;;;;5048017;28;20045;-69
2023/12/27 10:20:38;;;;;;;15.02;5.95;;;;;;;;;;5048086;28;20056;-69
2023/12/27 10:23:42;;;;;;;16.77;5.90;;;;;;;;;;5048547;28;20037;-68
2023/12/27 10:26:47;;;;;;;71.45;11.30;;;;;;;;;;5048382;28;20048;-69
2023/12/27 10:29:52;;;;;;;11.07;5.40;;;;;;;;;;5047908;28;20048;-69
2023/12/27 10:32:57;;;;;;;35.80;6.50;;;;;;;;;;5048138;28;20549;-69
2023/12/27 10:36:02;;;;;;;13.07;5.32;;;;;;;;;;5048495;28;20033;-71
2023/12/27 10:39:07;;;;;;;12.45;4.82;;;;;;;;;;5048257;28;20479;-72
2023/12/27 10:42:18;;;;;;;23.90;4.95;;;19.90;84.70;;;;;;5047124;28;20037;-69
2023/12/27 10:45:22;;;;;;;16.65;4.10;;;;;;;;;;5048308;28;20059;-69
2023/12/27 10:48:33;;;;;;;64.25;6.40;;;20.80;84.90;;;;;;5095995;27;20045;-69
2023/12/27 10:51:39;;;;;;;8.00;3.85;;;18.20;83.60;;;;;;5048066;28;20052;-70
2023/12/27 10:54:47;;;;;;;13.38;4.07;;;;;;;;;;5095227;27;20113;-70
2023/12/27 10:57:54;;;;;;;8.52;3.40;;;19.60;84.10;;;;;;5047830;28;20045;-70
2023/12/27 11:00:59;;;;;;;9.57;3.35;;;;;;;;;;5048105;28;20127;-69
2023/12/27 11:04:06;;;;;;;17.38;4.68;;;;;;;;;;5047900;28;20041;-68
2023/12/27 11:07:12;;;;;;;7.53;3.45;;;17.90;84.00;;;;;;5047768;28;20508;-72
2023/12/27 11:10:17;;;;;;;9.25;3.17;;;;;;;;;;5048155;28;20044;-70
2023/12/27 11:13:25;;;;;;;13.75;3.65;;;;;;;;;;5047664;28;20041;-71
2023/12/27 11:16:32;;;;;;;8.77;3.90;;;;;;;;;;5047392;28;20041;-70
2023/12/27 11:19:37;;;;;;;24.40;4.80;;;;;;;;;;5047329;28;20029;-71
2023/12/27 11:22:43;;;;;;;101.38;10.88;;;18.90;84.70;;;;;;5047409;28;20052;-69
2023/12/27 11:25:48;;;;;;;33.40;5.65;;;;;;;;;;5095250;28;20044;-70
2023/12/27 11:28:52;;;;;;;19.42;5.00;;;;;;;;;;5095119;28;20048;-71
2023/12/27 11:31:58;;;;;;;13.30;4.28;;;;;;;;;;5047410;28;20037;-70
2023/12/27 11:35:02;;;;;;;13.75;4.40;;;;;;;;;;5047599;28;20033;-69
2023/12/27 11:38:21;;;;;;;15.57;4.07;;;18.90;85.10;;;;;;5047190;28;20310;-68
2023/12/27 11:41:25;;;;;;;7.30;4.20;;;;;;;;;;5098291;27;20052;-69
2023/12/27 11:44:39;;;;;;;12.82;4.75;;;;;;;;;;5050782;28;20037;-71
2023/12/27 11:47:45;;;;;;;9.48;5.20;;;;;;;;;;5050494;28;20064;-70
2023/12/27 11:50:50;;;;;;;13.13;5.43;;;;;;;;;;5098372;27;20033;-70
2023/12/27 11:53:54;;;;;;;21.92;5.78;;;;;;;;;;5050668;28;20559;-70
2023/12/27 11:56:59;;;;;;;15.82;5.43;;;;;;;;;;5050799;28;20041;-70
2023/12/27 12:00:04;;;;;;;9.45;4.47;;;;;;;;;;5050458;28;20029;-69
2023/12/27 12:03:32;;;;;;;45.38;6.63;;;17.60;87.40;;;;;;5049972;28;20041;-70
2023/12/27 12:06:54;;;;;;;32.30;6.85;;;18.50;87.90;;;;;;5048830;28;20060;-68
2023/12/27 12:10:01;;;;;;;32.67;7.47;;;;;;;;;;5096661;27;20044;-69
2023/12/27 12:13:06;;;;;;;12.63;5.43;;;;;;;;;;5050336;28;20032;-69
2023/12/27 12:16:10;;;;;;;13.10;4.43;;;;;;;;;;5049913;28;20029;-67
2023/12/27 12:19:16;;;;;;;25.25;5.43;;;;;;;;;;5097819;27;20052;-70
2023/12/27 12:22:20;;;;;;;12.32;5.90;;;;;;;;;;5049944;28;20036;-69
2023/12/27 12:25:25;;;;;;;14.02;6.03;;;;;;;;;;5050290;28;20037;-69
2023/12/27 12:28:30;;;;;;;21.50;9.32;;;;;;;;;;5050284;28;20049;-68
2023/12/27 12:31:34;;;;;;;10.35;5.35;;;;;;;;;;5050171;28;20037;-68
2023/12/27 12:34:38;;;;;;;9.38;5.07;;;;;;;;;;5049874;28;20044;-68
2023/12/27 12:37:43;;;;;;;19.27;6.60;;;;;;;;;;5050012;28;20033;-68
2023/12/27 12:40:47;;;;;;;15.70;6.18;;;;;;;;;;5050125;28;20045;-69
2023/12/27 12:43:52;;;;;;;15.07;6.65;;;;;;;;;;5049794;28;20029;-68
2023/12/27 12:46:56;;;;;;;14.48;5.70;;;;;;;;;;5049882;28;20044;-68
2023/12/27 12:50:01;;;;;;;9.45;4.88;;;;;;;;;;5049710;28;20080;-68
2023/12/27 12:53:18;;;;;;;13.75;5.60;;;17.70;85.70;;;;;;5049730;28;20488;-68
2023/12/27 12:56:23;;;;;;;12.10;5.63;;;;;;;;;;5049817;28;20044;-68
2023/12/27 12:59:29;;;;;;;17.25;6.22;;;;;;;;;;5049632;28;20029;-68
2023/12/27 13:02:33;;;;;;;11.98;5.78;;;;;;;;;;5049483;28;20045;-68
2023/12/27 13:05:41;;;;;;;14.73;6.82;;;16.50;86.20;;;;;;5049362;28;20067;-69
2023/12/27 13:08:50;;;;;;;30.85;7.57;;;17.80;86.90;;;;;;5049516;28;20515;-68
2023/12/27 13:11:54;;;;;;;13.57;5.72;;;;;;;;;;5049687;28;20048;-69
2023/12/27 13:14:59;;;;;;;15.25;5.95;;;;;;;;;;5097010;27;20048;-69
2023/12/27 13:18:03;;;;;;;18.13;5.72;;;;;;;;;;5049428;28;20060;-68
2023/12/27 13:21:10;;;;;;;14.25;5.68;;;;;;;;;;5049676;28;20044;-68
2023/12/27 13:24:15;;;;;;;13.52;5.68;;;;;;;;;;5049227;28;20040;-68
2023/12/27 13:27:19;;;;;;;20.90;6.13;;;;;;;;;;5048039;28;20534;-68
2023/12/27 13:30:23;;;;;;;13.98;5.90;;;;;;;;;;5046774;28;20056;-68
2023/12/27 13:33:28;;;;;;;15.75;5.63;;;;;;;;;;5093120;27;20036;-68
2023/12/27 13:36:32;;;;;;;18.00;6.20;;;;;;;;;;5093374;27;20048;-68
2023/12/27 13:39:37;;;;;;;14.77;5.68;;;;;;;;;;5046781;28;20040;-67
2023/12/27 13:42:41;;;;;;;13.93;5.35;;;;;;;;;;5046523;28;20656;-68
2023/12/27 13:45:46;;;;;;;14.75;6.13;;;;;;;;;;5049142;28;20041;-68
2023/12/27 13:48:50;;;;;;;15.13;6.03;;;;;;;;;;5049318;28;20048;-68
2023/12/27 13:51:54;;;;;;;19.42;5.88;;;;;;;;;;5096145;27;20068;-68
2023/12/27 13:54:59;;;;;;;15.05;5.95;;;;;;;;;;5095754;27;20049;-68
2023/12/27 13:58:03;;;;;;;18.50;6.35;;;;;;;;;;5048759;28;20422;-68
2023/12/27 14:01:08;;;;;;;24.55;6.88;;;;;;;;;;5047642;28;20048;-68
2023/12/27 14:04:12;;;;;;;24.45;7.75;;;;;;;;;;5048013;28;20075;-68
2023/12/27 14:07:17;;;;;;;15.68;5.80;;;;;;;;;;5048811;28;20519;-68
2023/12/27 14:10:21;;;;;;;18.70;6.53;;;;;;;;;;5048599;28;20063;-68
2023/12/27 14:13:25;;;;;;;32.25;8.38;;;;;;;;;;5048549;28;20053;-68
2023/12/27 14:16:33;;;;;;;17.92;7.60;;;;;;;;;;5048197;28;20041;-68
2023/12/27 14:19:39;;;;;;;18.40;6.55;;;;;;;;;;5048724;28;20401;-67
2023/12/27 14:22:44;;;;;;;32.95;7.70;;;;;;;;;;5095846;27;20033;-68
2023/12/27 14:25:48;;;;;;;60.55;11.18;;;;;;;;;;5048628;28;20092;-68
2023/12/27 14:28:55;;;;;;;49.38;9.98;;;;;;;;;;5048551;28;20060;-68
2023/12/27 14:32:00;;;;;;;37.83;8.20;;;17.20;90.80;;;;;;5048119;28;20048;-67
2023/12/27 14:35:04;;;;;;;26.50;8.00;;;;;;;;;;5048356;28;20044;-67
2023/12/27 14:38:09;;;;;;;37.65;8.75;;;;;;;;;;5048053;28;20029;-68
2023/12/27 14:41:16;;;;;;;38.50;8.85;;;16.60;91.00;;;;;;5048564;28;20041;-67
2023/12/27 14:44:46;;;;;;;36.05;9.00;;;;;;;;;;5048060;28;20048;-68
2023/12/27 14:47:50;;;;;;;28.40;10.73;;;;;;;;;;5047892;28;20134;-68
2023/12/27 14:50:54;;;;;;;26.00;8.27;;;;;;;;;;5047583;28;20044;-68
2023/12/27 14:53:58;;;;;;;29.92;8.95;;;;;;;;;;5094937;27;20047;-68
2023/12/27 14:57:03;;;;;;;23.42;8.20;;;;;;;;;;5047720;28;20037;-68
2023/12/27 15:00:09;;;;;;;32.35;7.95;;;;;;;;;;5048182;28;20041;-68
2023/12/27 15:03:13;;;;;;;18.30;7.85;;;;;;;;;;5047697;28;20056;-68
2023/12/27 15:06:18;;;;;;;26.60;8.35;;;;;;;;;;5095470;27;20037;-68
2023/12/27 15:09:23;;;;;;;36.35;9.05;;;;;;;;;;5048131;28;20041;-68
2023/12/27 15:12:27;;;;;;;40.20;10.35;;;;;;;;;;5047756;28;20045;-68
2023/12/27 15:15:34;;;;;;;106.28;15.73;;;;;;;;;;5054141;28;20510;-69
2023/12/27 15:18:38;;;;;;;105.80;14.25;;;;;;;;;;5102232;27;20503;-69
2023/12/27 15:21:43;;;;;;;84.50;12.85;;;;;;;;;;5054324;28;20103;-68
2023/12/27 15:24:48;;;;;;;79.35;14.02;;;16.70;92.10;;;;;;5090226;28;20491;-68
2023/12/27 15:27:52;;;;;;;85.88;15.88;;;;;;;;;;5054063;28;20056;-68
2023/12/27 15:30:56;;;;;;;111.30;16.92;;;;;;;;;;5054337;28;20032;-69
2023/12/27 15:34:01;;;;;;;115.05;17.25;;;;;;;;;;5054271;28;20071;-68
2023/12/27 15:37:06;;;;;;;179.20;18.52;;;;;;;;;;5053976;28;20040;-69
2023/12/27 15:40:10;;;;;;;91.13;15.30;;;;;;;;;;5053861;28;20048;-69
2023/12/27 15:43:14;;;;;;;81.63;15.73;;;;;;;;;;5102107;27;20402;-69
2023/12/27 15:46:24;;;;;;;127.55;18.65;;;16.30;93.10;;;;;;5053763;28;20504;-68
2023/12/27 15:49:28;;;;;;;128.10;19.10;;;;;;;;;;5101704;27;20408;-68
2023/12/27 15:52:33;;;;;;;163.55;19.08;;;;;;;;;;5053751;28;20040;-69
2023/12/27 15:55:38;;;;;;;76.07;14.57;;;;;;;;;;5053889;28;20059;-68
2023/12/27 15:58:44;;;;;;;83.53;16.52;;;;;;;;;;5101831;27;20040;-69
2023/12/27 16:01:48;;;;;;;94.15;15.48;;;;;;;;;;5053580;28;20048;-69
2023/12/27 16:04:52;;;;;;;83.45;14.02;;;;;;;;;;5053805;28;20396;-72
2023/12/27 16:07:57;;;;;;;61.50;12.77;;;;;;;;;;5053423;28;20068;-68
2023/12/27 16:11:02;;;;;;;75.32;13.43;;;;;;;;;;5053633;28;20048;-69
2023/12/27 16:14:07;;;;;;;34.80;12.25;;;15.70;94.50;;;;;;5053723;28;20511;-68
2023/12/27 16:17:11;;;;;;;29.30;12.07;;;;;;;;;;5053442;28;20064;-70
2023/12/27 16:20:15;;;;;;;28.80;12.63;;;;;;;;;;5053423;28;20048;-70
2023/12/27 16:23:20;;;;;;;34.00;12.70;;;;;;;;;;5053481;28;20044;-69
2023/12/27 16:26:24;;;;;;;63.63;17.45;;;;;;;;;;5074999;28;20048;-69
2023/12/27 16:29:28;;;;;;;62.40;18.95;;;;;;;;;;5050307;28;20511;-69
2023/12/27 16:32:33;;;;;;;58.05;17.65;;;;;;;;;;5050085;28;20036;-69
2023/12/27 16:35:37;;;;;;;49.53;14.52;;;;;;;;;;5097606;27;20056;-70
2023/12/27 16:38:42;;;;;;;45.90;13.35;;;;;;;;;;5048203;28;20080;-70
2023/12/27 16:41:46;;;;;;;55.55;13.63;;;;;;;;;;5048092;28;20048;-71
2023/12/27 16:44:51;;;;;;;54.50;14.40;;;;;;;;;;5095687;27;20043;-71
2023/12/27 16:48:00;;;;;;;38.08;12.00;;;;;;;;;;5047827;28;20395;-71
2023/12/27 16:51:05;;;;;;;38.70;13.00;;;;;;;;;;5047978;28;20401;-71
2023/12/27 16:54:09;;;;;;;49.40;13.80;;;;;;;;;;5049565;28;20040;-71
2023/12/27 16:57:13;;;;;;;63.33;15.10;;;;;;;;;;5085837;28;20048;-69
2023/12/27 17:00:18;;;;;;;45.65;15.85;;;15.20;94.50;;;;;;5085620;28;20047;-67
2023/12/27 17:03:22;;;;;;;50.83;19.10;;;;;;;;;;5049640;28;20048;-68
2023/12/27 17:06:26;;;;;;;86.82;25.60;;;;;;;;;;5049344;28;20518;-67
2023/12/27 17:09:31;;;;;;;64.78;25.63;;;;;;;;;;5049275;28;20052;-67
2023/12/27 17:12:37;;;;;;;57.75;27.83;;;;;;;;;;5049464;28;20048;-67
2023/12/27 17:15:41;;;;;;;75.75;31.90;;;;;;;;;;5049358;28;20067;-68
2023/12/27 17:18:45;;;;;;;63.08;29.67;;;;;;;;;;5097026;27;20396;-68
2023/12/27 17:21:50;;;;;;;77.22;31.38;;;;;;;;;;5049573;28;20164;-68
2023/12/27 17:24:54;;;;;;;65.88;32.33;;;;;;;;;;5096948;27;20048;-70
2023/12/27 17:27:58;;;;;;;68.07;32.90;;;;;;;;;;5049035;28;20056;-67
2023/12/27 17:31:03;;;;;;;69.35;32.50;;;;;;;;;;5096879;27;20048;-67
2023/12/27 17:34:07;;;;;;;67.47;33.42;;;;;;;;;;5048954;28;20052;-68
2023/12/27 17:37:12;;;;;;;57.65;32.53;;;14.20;96.40;;;;;;5047732;28;20056;-68
2023/12/27 17:40:17;;;;;;;67.93;35.47;;;;;;;;;;5046766;28;20048;-70
2023/12/27 17:43:21;;;;;;;108.05;40.40;;;;;;;;;;5046388;28;20067;-69
2023/12/27 17:46:25;;;;;;;73.07;34.90;;;;;;;;;;5046438;28;20691;-72